Hauptseite
METAR-TAF:

METAR-TAF

Flughäfen :

Flughafen Verona

Verona, Italien

Breite: 45-23N, Länge: 010-52E, Höhe: 67 m

Beobachtung

Neuester Wetterbericht von vor 42 Minuten, um 01:50 UTC
Wind 3 kt aus West/Südwest
Temperatur 7°C
Luftfeuchtigkeit 70%
Luftdruck 1015 hPa
Sichtweite 10 km oder mehr
keine Wolken unter 1500 m und keine Kumulonimbus oder Gewitterwolken

METAR: LIPX 250150Z 24003KT CAVOK 07/02 Q1015

Zeit: 03:32 (02:32 UTC)

Prognose

Neuester Wetterbericht von vor 3 Stunden und 32 Minuten, um 23:00 UTC
Gültige Prognose vom 25 um 00 UTC bis 25 um 09 UTC
Wind 5 kt aus unterschiedlichen Richtungen
Sichtweite 10 km oder mehr
keine Wolken unter 1500 m und keine Kumulonimbus oder Gewitterwolken

TAF: LIPX 242300Z 2500/2509 VRB05KT CAVOK

Wetterbeobachtungen und Prognosen von mehr als 4000 Flughäfen (METAR und TAF Bericht).

Die verfügbaren Stationen werden durch gelbe und rote Markierungen auf der Karte dargestellt.

Führen Sie die Maus auf sie, um den Namen der Station zu sehen.

Darauf klicken, um die Beobachtung von Wetterbeobachtungen und Prognosen zu sehen.

Um die Karte zu ändern : klicken Sie auf den grünen Tasten mit einem schwarzen Kreuz Zum Vergrößern, auf den grünen Button mit einem Gedankenstrich zu verkleinern, oder auf die grünen Pfeile für benachbarte Karten.


METAR-TAF: